sensor_id;sensor_type;location;lat;lon;timestamp;temperature;humidity
2539;DHT22;1280;49.760;9.664;2022-11-20T00:00:55;5.30;81.40
2539;DHT22;1280;49.760;9.664;2022-11-20T00:03:23;5.20;81.40
2539;DHT22;1280;49.760;9.664;2022-11-20T00:05:53;5.20;81.40
2539;DHT22;1280;49.760;9.664;2022-11-20T00:08:21;5.20;81.50
2539;DHT22;1280;49.760;9.664;2022-11-20T00:10:48;5.20;81.40
2539;DHT22;1280;49.760;9.664;2022-11-20T00:13:16;5.20;81.50
2539;DHT22;1280;49.760;9.664;2022-11-20T00:15:44;5.20;81.50
2539;DHT22;1280;49.760;9.664;2022-11-20T00:18:12;5.30;81.50
2539;DHT22;1280;49.760;9.664;2022-11-20T00:20:40;5.30;81.50
2539;DHT22;1280;49.760;9.664;2022-11-20T00:23:09;5.30;81.40
2539;DHT22;1280;49.760;9.664;2022-11-20T00:25:37;5.30;81.40
2539;DHT22;1280;49.760;9.664;2022-11-20T00:28:05;5.30;81.50
2539;DHT22;1280;49.760;9.664;2022-11-20T00:30:33;5.30;81.40
2539;DHT22;1280;49.760;9.664;2022-11-20T00:33:01;5.40;81.40
2539;DHT22;1280;49.760;9.664;2022-11-20T00:35:29;5.40;81.30
2539;DHT22;1280;49.760;9.664;2022-11-20T00:37:57;5.40;81.40
2539;DHT22;1280;49.760;9.664;2022-11-20T00:40:27;5.40;81.30
2539;DHT22;1280;49.760;9.664;2022-11-20T00:42:55;5.40;81.30
2539;DHT22;1280;49.760;9.664;2022-11-20T00:45:23;5.40;81.30
2539;DHT22;1280;49.760;9.664;2022-11-20T00:47:51;5.40;81.30
2539;DHT22;1280;49.760;9.664;2022-11-20T00:50:19;5.40;81.20
2539;DHT22;1280;49.760;9.664;2022-11-20T00:52:46;5.40;81.10
2539;DHT22;1280;49.760;9.664;2022-11-20T00:55:14;5.40;81.20
2539;DHT22;1280;49.760;9.664;2022-11-20T00:57:44;5.40;81.20
2539;DHT22;1280;49.760;9.664;2022-11-20T01:00:12;5.40;81.20
2539;DHT22;1280;49.760;9.664;2022-11-20T01:02:40;5.50;81.20
2539;DHT22;1280;49.760;9.664;2022-11-20T01:05:08;5.50;81.20
2539;DHT22;1280;49.760;9.664;2022-11-20T01:07:36;5.50;81.10
2539;DHT22;1280;49.760;9.664;2022-11-20T01:10:05;5.50;81.10
2539;DHT22;1280;49.760;9.664;2022-11-20T01:12:33;5.50;81.10
2539;DHT22;1280;49.760;9.664;2022-11-20T01:15:03;5.50;81.00
2539;DHT22;1280;49.760;9.664;2022-11-20T01:17:31;5.50;81.00
2539;DHT22;1280;49.760;9.664;2022-11-20T01:19:59;5.50;81.00
2539;DHT22;1280;49.760;9.664;2022-11-20T01:22:27;5.50;80.90
2539;DHT22;1280;49.760;9.664;2022-11-20T01:24:55;5.50;80.80
2539;DHT22;1280;49.760;9.664;2022-11-20T01:27:23;5.50;80.80
2539;DHT22;1280;49.760;9.664;2022-11-20T01:29:51;5.40;80.60
2539;DHT22;1280;49.760;9.664;2022-11-20T01:32:27;5.40;80.80
2539;DHT22;1280;49.760;9.664;2022-11-20T01:34:55;5.40;80.90
2539;DHT22;1280;49.760;9.664;2022-11-20T01:37:23;5.40;80.80
2539;DHT22;1280;49.760;9.664;2022-11-20T01:39:51;5.30;80.50
2539;DHT22;1280;49.760;9.664;2022-11-20T01:42:19;5.30;80.50
2539;DHT22;1280;49.760;9.664;2022-11-20T01:45:46;5.20;80.70
2539;DHT22;1280;49.760;9.664;2022-11-20T01:48:22;5.20;80.80
2539;DHT22;1280;49.760;9.664;2022-11-20T01:50:51;5.20;80.70
2539;DHT22;1280;49.760;9.664;2022-11-20T01:53:24;5.10;80.60
2539;DHT22;1280;49.760;9.664;2022-11-20T01:55:55;5.10;80.70
2539;DHT22;1280;49.760;9.664;2022-11-20T01:58:27;5.10;80.70
2539;DHT22;1280;49.760;9.664;2022-11-20T02:00:56;5.10;80.80
2539;DHT22;1280;49.760;9.664;2022-11-20T02:03:26;5.10;80.90
2539;DHT22;1280;49.760;9.664;2022-11-20T02:06:00;5.10;80.80
2539;DHT22;1280;49.760;9.664;2022-11-20T02:08:29;5.10;80.80
2539;DHT22;1280;49.760;9.664;2022-11-20T02:10:58;5.20;80.80
2539;DHT22;1280;49.760;9.664;2022-11-20T02:13:26;5.20;80.80
2539;DHT22;1280;49.760;9.664;2022-11-20T02:16:15;5.20;80.70
2539;DHT22;1280;49.760;9.664;2022-11-20T02:18:45;5.20;80.80
2539;DHT22;1280;49.760;9.664;2022-11-20T02:21:24;5.20;80.80
2539;DHT22;1280;49.760;9.664;2022-11-20T02:24:04;5.20;80.80
2539;DHT22;1280;49.760;9.664;2022-11-20T02:26:39;5.20;80.80
2539;DHT22;1280;49.760;9.664;2022-11-20T02:29:08;5.20;80.80
2539;DHT22;1280;49.760;9.664;2022-11-20T02:31:38;5.20;80.80
2539;DHT22;1280;49.760;9.664;2022-11-20T02:34:08;5.20;80.80
2539;DHT22;1280;49.760;9.664;2022-11-20T02:36:36;5.20;80.80
2539;DHT22;1280;49.760;9.664;2022-11-20T02:39:09;5.30;80.80
2539;DHT22;1280;49.760;9.664;2022-11-20T02:41:39;5.30;80.80
2539;DHT22;1280;49.760;9.664;2022-11-20T02:44:07;5.30;80.80
2539;DHT22;1280;49.760;9.664;2022-11-20T02:46:35;5.30;80.80
2539;DHT22;1280;49.760;9.664;2022-11-20T02:49:03;5.30;80.80
2539;DHT22;1280;49.760;9.664;2022-11-20T02:51:32;5.30;80.80
2539;DHT22;1280;49.760;9.664;2022-11-20T02:54:00;5.30;80.80
2539;DHT22;1280;49.760;9.664;2022-11-20T02:56:30;5.30;80.80
2539;DHT22;1280;49.760;9.664;2022-11-20T02:58:58;5.30;80.80
2539;DHT22;1280;49.760;9.664;2022-11-20T03:01:26;5.30;80.80
2539;DHT22;1280;49.760;9.664;2022-11-20T03:03:54;5.30;80.80
2539;DHT22;1280;49.760;9.664;2022-11-20T03:06:22;5.30;80.60
2539;DHT22;1280;49.760;9.664;2022-11-20T03:08:50;5.30;80.80
2539;DHT22;1280;49.760;9.664;2022-11-20T03:11:19;5.30;80.50
2539;DHT22;1280;49.760;9.664;2022-11-20T03:13:48;5.20;80.50
2539;DHT22;1280;49.760;9.664;2022-11-20T03:16:18;5.20;80.60
2539;DHT22;1280;49.760;9.664;2022-11-20T03:18:46;5.10;80.50
2539;DHT22;1280;49.760;9.664;2022-11-20T03:21:15;5.10;80.50
2539;DHT22;1280;49.760;9.664;2022-11-20T03:23:43;5.10;80.40
2539;DHT22;1280;49.760;9.664;2022-11-20T03:26:13;5.00;80.40
2539;DHT22;1280;49.760;9.664;2022-11-20T03:28:45;4.90;80.40
2539;DHT22;1280;49.760;9.664;2022-11-20T03:31:16;4.90;80.30
2539;DHT22;1280;49.760;9.664;2022-11-20T03:33:45;4.80;80.70
2539;DHT22;1280;49.760;9.664;2022-11-20T03:36:15;4.80;80.80
2539;DHT22;1280;49.760;9.664;2022-11-20T03:38:43;4.80;80.70
2539;DHT22;1280;49.760;9.664;2022-11-20T03:41:13;4.80;80.70
2539;DHT22;1280;49.760;9.664;2022-11-20T03:43:41;4.70;80.90
2539;DHT22;1280;49.760;9.664;2022-11-20T03:46:09;4.70;80.80
2539;DHT22;1280;49.760;9.664;2022-11-20T03:48:38;4.70;80.90
2539;DHT22;1280;49.760;9.664;2022-11-20T03:51:08;4.70;80.90
2539;DHT22;1280;49.760;9.664;2022-11-20T03:53:36;4.70;81.00
2539;DHT22;1280;49.760;9.664;2022-11-20T03:56:05;4.70;81.00
2539;DHT22;1280;49.760;9.664;2022-11-20T03:58:34;4.70;81.00
2539;DHT22;1280;49.760;9.664;2022-11-20T04:01:06;4.70;80.90
2539;DHT22;1280;49.760;9.664;2022-11-20T04:03:35;4.70;81.00
2539;DHT22;1280;49.760;9.664;2022-11-20T04:06:08;4.70;81.20
2539;DHT22;1280;49.760;9.664;2022-11-20T04:08:37;4.70;81.20
2539;DHT22;1280;49.760;9.664;2022-11-20T04:11:12;4.70;81.30
2539;DHT22;1280;49.760;9.664;2022-11-20T04:13:41;4.80;81.30
2539;DHT22;1280;49.760;9.664;2022-11-20T04:16:09;4.80;81.20
2539;DHT22;1280;49.760;9.664;2022-11-20T04:18:37;4.80;81.20
2539;DHT22;1280;49.760;9.664;2022-11-20T04:21:07;4.80;81.30
2539;DHT22;1280;49.760;9.664;2022-11-20T04:23:35;4.80;81.30
2539;DHT22;1280;49.760;9.664;2022-11-20T04:26:04;4.80;81.30
2539;DHT22;1280;49.760;9.664;2022-11-20T04:28:32;4.80;81.20
2539;DHT22;1280;49.760;9.664;2022-11-20T04:31:03;4.80;81.10
2539;DHT22;1280;49.760;9.664;2022-11-20T04:33:31;4.80;81.10
2539;DHT22;1280;49.760;9.664;2022-11-20T04:36:02;4.70;81.20
2539;DHT22;1280;49.760;9.664;2022-11-20T04:38:31;4.70;81.20
2539;DHT22;1280;49.760;9.664;2022-11-20T04:41:01;4.70;81.20
2539;DHT22;1280;49.760;9.664;2022-11-20T04:43:29;4.70;81.30
2539;DHT22;1280;49.760;9.664;2022-11-20T04:45:58;4.70;81.50
2539;DHT22;1280;49.760;9.664;2022-11-20T04:48:27;4.70;81.50
2539;DHT22;1280;49.760;9.664;2022-11-20T04:50:55;4.80;81.50
2539;DHT22;1280;49.760;9.664;2022-11-20T04:53:24;4.80;81.50
2539;DHT22;1280;49.760;9.664;2022-11-20T04:55:59;4.80;81.50
2539;DHT22;1280;49.760;9.664;2022-11-20T04:58:27;4.80;81.40
2539;DHT22;1280;49.760;9.664;2022-11-20T05:01:01;4.90;81.40
2539;DHT22;1280;49.760;9.664;2022-11-20T05:03:30;4.90;81.60
2539;DHT22;1280;49.760;9.664;2022-11-20T05:06:00;4.90;81.60
2539;DHT22;1280;49.760;9.664;2022-11-20T05:08:28;5.00;81.60
2539;DHT22;1280;49.760;9.664;2022-11-20T05:11:01;5.00;81.60
2539;DHT22;1280;49.760;9.664;2022-11-20T05:13:29;5.00;81.30
2539;DHT22;1280;49.760;9.664;2022-11-20T05:16:01;5.00;81.10
2539;DHT22;1280;49.760;9.664;2022-11-20T05:18:30;5.00;81.20
2539;DHT22;1280;49.760;9.664;2022-11-20T05:20:58;5.00;81.30
2539;DHT22;1280;49.760;9.664;2022-11-20T05:23:27;5.00;81.30
2539;DHT22;1280;49.760;9.664;2022-11-20T05:25:56;5.00;81.20
2539;DHT22;1280;49.760;9.664;2022-11-20T05:28:27;4.90;81.20
2539;DHT22;1280;49.760;9.664;2022-11-20T05:30:55;4.90;81.40
2539;DHT22;1280;49.760;9.664;2022-11-20T05:33:23;5.00;81.40
2539;DHT22;1280;49.760;9.664;2022-11-20T05:35:51;5.00;81.60
2539;DHT22;1280;49.760;9.664;2022-11-20T05:38:19;5.10;81.50
2539;DHT22;1280;49.760;9.664;2022-11-20T05:40:47;5.00;81.40
2539;DHT22;1280;49.760;9.664;2022-11-20T05:43:15;5.10;81.40
2539;DHT22;1280;49.760;9.664;2022-11-20T05:45:51;5.10;81.30
2539;DHT22;1280;49.760;9.664;2022-11-20T05:48:19;5.00;81.40
2539;DHT22;1280;49.760;9.664;2022-11-20T05:50:48;5.10;81.40
2539;DHT22;1280;49.760;9.664;2022-11-20T05:53:16;5.10;81.20
2539;DHT22;1280;49.760;9.664;2022-11-20T05:55:44;5.00;81.20
2539;DHT22;1280;49.760;9.664;2022-11-20T05:58:12;5.00;81.20
2539;DHT22;1280;49.760;9.664;2022-11-20T06:00:40;5.00;81.30
2539;DHT22;1280;49.760;9.664;2022-11-20T06:03:09;4.90;81.20
2539;DHT22;1280;49.760;9.664;2022-11-20T06:05:37;4.90;81.20
2539;DHT22;1280;49.760;9.664;2022-11-20T06:08:05;4.90;81.10
2539;DHT22;1280;49.760;9.664;2022-11-20T06:10:33;4.90;81.20
2539;DHT22;1280;49.760;9.664;2022-11-20T06:13:01;4.90;81.40
2539;DHT22;1280;49.760;9.664;2022-11-20T06:15:29;4.90;81.30
2539;DHT22;1280;49.760;9.664;2022-11-20T06:17:57;4.90;81.60
2539;DHT22;1280;49.760;9.664;2022-11-20T06:20:26;4.90;81.70
2539;DHT22;1280;49.760;9.664;2022-11-20T06:22:54;4.90;81.70
2539;DHT22;1280;49.760;9.664;2022-11-20T06:25:22;5.00;81.70
2539;DHT22;1280;49.760;9.664;2022-11-20T06:27:50;5.00;81.60
2539;DHT22;1280;49.760;9.664;2022-11-20T06:30:19;5.00;81.60
2539;DHT22;1280;49.760;9.664;2022-11-20T06:32:47;5.00;81.50
2539;DHT22;1280;49.760;9.664;2022-11-20T06:35:15;5.10;81.50
2539;DHT22;1280;49.760;9.664;2022-11-20T06:37:44;5.10;81.50
2539;DHT22;1280;49.760;9.664;2022-11-20T06:40:13;5.10;81.50
2539;DHT22;1280;49.760;9.664;2022-11-20T06:42:41;5.10;81.50
2539;DHT22;1280;49.760;9.664;2022-11-20T06:45:09;5.10;81.50
2539;DHT22;1280;49.760;9.664;2022-11-20T06:47:38;5.10;81.50
2539;DHT22;1280;49.760;9.664;2022-11-20T06:50:06;5.10;81.50
2539;DHT22;1280;49.760;9.664;2022-11-20T06:52:34;5.20;81.50
2539;DHT22;1280;49.760;9.664;2022-11-20T06:55:10;5.20;81.50
2539;DHT22;1280;49.760;9.664;2022-11-20T06:57:39;5.20;81.60
2539;DHT22;1280;49.760;9.664;2022-11-20T07:00:08;5.20;81.50
2539;DHT22;1280;49.760;9.664;2022-11-20T07:02:37;5.20;81.50
2539;DHT22;1280;49.760;9.664;2022-11-20T07:05:05;5.20;81.50
2539;DHT22;1280;49.760;9.664;2022-11-20T07:07:33;5.20;81.60
2539;DHT22;1280;49.760;9.664;2022-11-20T07:10:01;5.20;81.60
2539;DHT22;1280;49.760;9.664;2022-11-20T07:12:30;5.20;81.50
2539;DHT22;1280;49.760;9.664;2022-11-20T07:14:58;5.20;81.50
2539;DHT22;1280;49.760;9.664;2022-11-20T07:17:26;5.20;81.50
2539;DHT22;1280;49.760;9.664;2022-11-20T07:19:54;5.20;81.50
2539;DHT22;1280;49.760;9.664;2022-11-20T07:22:22;5.20;81.60
2539;DHT22;1280;49.760;9.664;2022-11-20T07:24:50;5.20;81.60
2539;DHT22;1280;49.760;9.664;2022-11-20T07:27:18;5.30;81.60
2539;DHT22;1280;49.760;9.664;2022-11-20T07:29:48;5.30;81.50
2539;DHT22;1280;49.760;9.664;2022-11-20T07:32:15;5.20;81.60
2539;DHT22;1280;49.760;9.664;2022-11-20T07:34:44;5.30;81.60
2539;DHT22;1280;49.760;9.664;2022-11-20T07:37:12;5.30;81.60
2539;DHT22;1280;49.760;9.664;2022-11-20T07:39:40;5.20;81.50
2539;DHT22;1280;49.760;9.664;2022-11-20T07:42:08;5.20;81.40
2539;DHT22;1280;49.760;9.664;2022-11-20T07:44:36;5.20;81.30
2539;DHT22;1280;49.760;9.664;2022-11-20T07:47:06;5.10;81.30
2539;DHT22;1280;49.760;9.664;2022-11-20T07:49:34;5.00;81.40
2539;DHT22;1280;49.760;9.664;2022-11-20T07:52:02;5.00;81.60
2539;DHT22;1280;49.760;9.664;2022-11-20T07:54:31;5.10;81.70
2539;DHT22;1280;49.760;9.664;2022-11-20T07:56:59;5.10;81.80
2539;DHT22;1280;49.760;9.664;2022-11-20T07:59:27;5.10;81.80
2539;DHT22;1280;49.760;9.664;2022-11-20T08:01:55;5.20;81.70
2539;DHT22;1280;49.760;9.664;2022-11-20T08:04:24;5.20;81.70
2539;DHT22;1280;49.760;9.664;2022-11-20T08:06:52;5.20;81.70
2539;DHT22;1280;49.760;9.664;2022-11-20T08:09:20;5.20;81.70
2539;DHT22;1280;49.760;9.664;2022-11-20T08:11:49;5.20;81.70
2539;DHT22;1280;49.760;9.664;2022-11-20T08:14:35;5.20;81.70
2539;DHT22;1280;49.760;9.664;2022-11-20T08:17:02;5.30;81.70
2539;DHT22;1280;49.760;9.664;2022-11-20T08:19:32;5.30;81.70
2539;DHT22;1280;49.760;9.664;2022-11-20T08:22:00;5.30;81.70
2539;DHT22;1280;49.760;9.664;2022-11-20T08:24:28;5.30;81.80
2539;DHT22;1280;49.760;9.664;2022-11-20T08:26:57;5.30;81.70
2539;DHT22;1280;49.760;9.664;2022-11-20T08:29:26;5.30;81.70
2539;DHT22;1280;49.760;9.664;2022-11-20T08:31:54;5.30;81.80
2539;DHT22;1280;49.760;9.664;2022-11-20T08:34:22;5.30;81.80
2539;DHT22;1280;49.760;9.664;2022-11-20T08:36:51;5.30;81.70
2539;DHT22;1280;49.760;9.664;2022-11-20T08:39:19;5.40;81.80
2539;DHT22;1280;49.760;9.664;2022-11-20T08:41:47;5.40;81.80
2539;DHT22;1280;49.760;9.664;2022-11-20T08:44:15;5.40;81.80
2539;DHT22;1280;49.760;9.664;2022-11-20T08:46:44;5.40;81.80
2539;DHT22;1280;49.760;9.664;2022-11-20T08:49:13;5.40;81.70
2539;DHT22;1280;49.760;9.664;2022-11-20T08:51:42;5.40;81.80
2539;DHT22;1280;49.760;9.664;2022-11-20T08:54:11;5.40;81.80
2539;DHT22;1280;49.760;9.664;2022-11-20T08:56:40;5.40;81.80
2539;DHT22;1280;49.760;9.664;2022-11-20T08:59:08;5.40;81.80
2539;DHT22;1280;49.760;9.664;2022-11-20T09:01:56;5.40;81.80
2539;DHT22;1280;49.760;9.664;2022-11-20T09:04:25;5.50;81.90
2539;DHT22;1280;49.760;9.664;2022-11-20T09:06:53;5.50;81.80
2539;DHT22;1280;49.760;9.664;2022-11-20T09:09:22;5.50;81.80
2539;DHT22;1280;49.760;9.664;2022-11-20T09:11:50;5.50;81.80
2539;DHT22;1280;49.760;9.664;2022-11-20T09:14:18;5.50;81.80
2539;DHT22;1280;49.760;9.664;2022-11-20T09:16:46;5.50;81.80
2539;DHT22;1280;49.760;9.664;2022-11-20T09:19:14;5.50;81.80
2539;DHT22;1280;49.760;9.664;2022-11-20T09:22:02;5.50;81.80
2539;DHT22;1280;49.760;9.664;2022-11-20T09:24:32;5.50;81.80
2539;DHT22;1280;49.760;9.664;2022-11-20T09:27:02;5.60;81.80
2539;DHT22;1280;49.760;9.664;2022-11-20T09:29:30;5.60;81.60
2539;DHT22;1280;49.760;9.664;2022-11-20T09:31:58;5.50;81.40
2539;DHT22;1280;49.760;9.664;2022-11-20T09:34:26;5.40;81.50
2539;DHT22;1280;49.760;9.664;2022-11-20T09:36:54;5.40;81.60
2539;DHT22;1280;49.760;9.664;2022-11-20T09:39:25;5.30;81.70
2539;DHT22;1280;49.760;9.664;2022-11-20T09:42:08;5.30;81.80
2539;DHT22;1280;49.760;9.664;2022-11-20T09:44:49;5.40;81.90
2539;DHT22;1280;49.760;9.664;2022-11-20T09:47:28;5.40;81.90
2539;DHT22;1280;49.760;9.664;2022-11-20T09:50:12;5.40;81.90
2539;DHT22;1280;49.760;9.664;2022-11-20T09:52:49;5.40;82.00
2539;DHT22;1280;49.760;9.664;2022-11-20T09:55:21;5.40;82.00
2539;DHT22;1280;49.760;9.664;2022-11-20T09:57:52;5.40;82.10
2539;DHT22;1280;49.760;9.664;2022-11-20T10:00:20;5.50;82.10
2539;DHT22;1280;49.760;9.664;2022-11-20T10:02:53;5.50;82.10
2539;DHT22;1280;49.760;9.664;2022-11-20T10:05:25;5.50;82.10
2539;DHT22;1280;49.760;9.664;2022-11-20T10:08:07;5.50;82.10
2539;DHT22;1280;49.760;9.664;2022-11-20T10:10:43;5.60;82.20
2539;DHT22;1280;49.760;9.664;2022-11-20T10:13:29;5.60;82.30
2539;DHT22;1280;49.760;9.664;2022-11-20T10:16:16;5.60;82.30
2539;DHT22;1280;49.760;9.664;2022-11-20T10:19:01;5.70;82.20
2539;DHT22;1280;49.760;9.664;2022-11-20T10:21:41;5.70;82.20
2539;DHT22;1280;49.760;9.664;2022-11-20T10:24:32;5.70;82.10
2539;DHT22;1280;49.760;9.664;2022-11-20T10:27:13;5.70;82.10
2539;DHT22;1280;49.760;9.664;2022-11-20T10:30:00;5.70;82.10
2539;DHT22;1280;49.760;9.664;2022-11-20T10:32:33;5.70;82.20
2539;DHT22;1280;49.760;9.664;2022-11-20T10:35:09;5.70;82.10
2539;DHT22;1280;49.760;9.664;2022-11-20T10:37:44;5.70;82.20
2539;DHT22;1280;49.760;9.664;2022-11-20T10:40:20;5.80;82.20
2539;DHT22;1280;49.760;9.664;2022-11-20T10:42:53;5.80;82.20
2539;DHT22;1280;49.760;9.664;2022-11-20T10:45:36;5.80;82.20
2539;DHT22;1280;49.760;9.664;2022-11-20T10:48:16;5.80;82.30
2539;DHT22;1280;49.760;9.664;2022-11-20T10:50:53;5.90;82.20
2539;DHT22;1280;49.760;9.664;2022-11-20T10:53:36;5.90;82.20
2539;DHT22;1280;49.760;9.664;2022-11-20T10:56:15;5.90;82.20
2539;DHT22;1280;49.760;9.664;2022-11-20T10:58:52;5.90;82.30
2539;DHT22;1280;49.760;9.664;2022-11-20T11:01:23;6.00;82.30
2539;DHT22;1280;49.760;9.664;2022-11-20T11:03:55;6.00;82.20
2539;DHT22;1280;49.760;9.664;2022-11-20T11:06:29;6.00;82.30
2539;DHT22;1280;49.760;9.664;2022-11-20T11:09:19;6.00;82.30
2539;DHT22;1280;49.760;9.664;2022-11-20T11:11:49;6.00;82.30
2539;DHT22;1280;49.760;9.664;2022-11-20T11:14:17;6.00;82.40
2539;DHT22;1280;49.760;9.664;2022-11-20T11:16:51;6.10;82.30
2539;DHT22;1280;49.760;9.664;2022-11-20T11:19:19;6.10;82.40
2539;DHT22;1280;49.760;9.664;2022-11-20T11:21:51;6.10;82.40
2539;DHT22;1280;49.760;9.664;2022-11-20T11:24:23;6.10;82.40
2539;DHT22;1280;49.760;9.664;2022-11-20T11:27:12;6.10;82.40
2539;DHT22;1280;49.760;9.664;2022-11-20T11:29:43;6.10;82.40
2539;DHT22;1280;49.760;9.664;2022-11-20T11:32:14;6.10;82.40
2539;DHT22;1280;49.760;9.664;2022-11-20T11:34:43;6.10;82.40
2539;DHT22;1280;49.760;9.664;2022-11-20T11:37:15;6.10;82.30
2539;DHT22;1280;49.760;9.664;2022-11-20T11:39:46;6.10;82.30
2539;DHT22;1280;49.760;9.664;2022-11-20T11:42:35;6.10;82.40
2539;DHT22;1280;49.760;9.664;2022-11-20T11:45:06;6.10;82.40
2539;DHT22;1280;49.760;9.664;2022-11-20T11:47:37;6.10;82.40
2539;DHT22;1280;49.760;9.664;2022-11-20T11:50:19;6.10;82.40
2539;DHT22;1280;49.760;9.664;2022-11-20T11:52:56;6.10;82.50
2539;DHT22;1280;49.760;9.664;2022-11-20T11:55:31;6.10;82.50
2539;DHT22;1280;49.760;9.664;2022-11-20T11:58:19;6.10;82.60
2539;DHT22;1280;49.760;9.664;2022-11-20T12:00:54;6.10;82.60
2539;DHT22;1280;49.760;9.664;2022-11-20T12:03:29;6.10;82.60
2539;DHT22;1280;49.760;9.664;2022-11-20T12:06:05;6.20;82.60
2539;DHT22;1280;49.760;9.664;2022-11-20T12:08:42;6.20;82.60
2539;DHT22;1280;49.760;9.664;2022-11-20T12:11:16;6.20;82.70
2539;DHT22;1280;49.760;9.664;2022-11-20T12:13:50;6.20;82.70
2539;DHT22;1280;49.760;9.664;2022-11-20T12:16:20;6.20;82.70
2539;DHT22;1280;49.760;9.664;2022-11-20T12:18:51;6.20;82.60
2539;DHT22;1280;49.760;9.664;2022-11-20T12:21:23;6.20;82.70
2539;DHT22;1280;49.760;9.664;2022-11-20T12:24:06;6.20;82.70
2539;DHT22;1280;49.760;9.664;2022-11-20T12:26:56;6.20;82.70
2539;DHT22;1280;49.760;9.664;2022-11-20T12:29:38;6.20;82.70
2539;DHT22;1280;49.760;9.664;2022-11-20T12:32:35;6.20;82.70
2539;DHT22;1280;49.760;9.664;2022-11-20T12:35:13;6.20;82.80
2539;DHT22;1280;49.760;9.664;2022-11-20T12:37:51;6.20;82.80
2539;DHT22;1280;49.760;9.664;2022-11-20T12:40:30;6.20;82.80
2539;DHT22;1280;49.760;9.664;2022-11-20T12:43:06;6.20;82.80
2539;DHT22;1280;49.760;9.664;2022-11-20T12:46:12;6.30;82.90
2539;DHT22;1280;49.760;9.664;2022-11-20T12:48:51;6.30;82.90
2539;DHT22;1280;49.760;9.664;2022-11-20T12:51:34;6.30;83.00
2539;DHT22;1280;49.760;9.664;2022-11-20T12:54:32;6.30;83.00
2539;DHT22;1280;49.760;9.664;2022-11-20T12:57:06;6.30;83.00
2539;DHT22;1280;49.760;9.664;2022-11-20T12:59:50;6.30;83.00
2539;DHT22;1280;49.760;9.664;2022-11-20T13:02:25;6.40;83.10
2539;DHT22;1280;49.760;9.664;2022-11-20T13:05:24;6.40;83.00
2539;DHT22;1280;49.760;9.664;2022-11-20T13:07:56;6.40;83.00
2539;DHT22;1280;49.760;9.664;2022-11-20T13:10:33;6.40;83.00
2539;DHT22;1280;49.760;9.664;2022-11-20T13:13:07;6.40;83.00
2539;DHT22;1280;49.760;9.664;2022-11-20T13:15:48;6.40;83.10
2539;DHT22;1280;49.760;9.664;2022-11-20T13:18:19;6.40;83.10
2539;DHT22;1280;49.760;9.664;2022-11-20T13:20:47;6.40;83.10
2539;DHT22;1280;49.760;9.664;2022-11-20T13:23:27;6.50;83.10
2539;DHT22;1280;49.760;9.664;2022-11-20T13:26:06;6.50;83.20
2539;DHT22;1280;49.760;9.664;2022-11-20T13:28:35;6.50;83.50
2539;DHT22;1280;49.760;9.664;2022-11-20T13:31:03;6.50;83.40
2539;DHT22;1280;49.760;9.664;2022-11-20T13:33:32;6.60;83.40
2539;DHT22;1280;49.760;9.664;2022-11-20T13:36:04;6.60;83.40
2539;DHT22;1280;49.760;9.664;2022-11-20T13:38:43;6.60;83.30
2539;DHT22;1280;49.760;9.664;2022-11-20T13:41:23;6.60;83.30
2539;DHT22;1280;49.760;9.664;2022-11-20T13:44:10;6.60;83.20
2539;DHT22;1280;49.760;9.664;2022-11-20T13:46:42;6.60;83.20
2539;DHT22;1280;49.760;9.664;2022-11-20T13:49:18;6.60;83.30
2539;DHT22;1280;49.760;9.664;2022-11-20T13:51:47;6.60;83.30
2539;DHT22;1280;49.760;9.664;2022-11-20T13:54:44;6.60;83.40
2539;DHT22;1280;49.760;9.664;2022-11-20T13:57:37;6.60;83.40
2539;DHT22;1280;49.760;9.664;2022-11-20T14:00:12;6.70;83.40
2539;DHT22;1280;49.760;9.664;2022-11-20T14:02:41;6.60;83.40
2539;DHT22;1280;49.760;9.664;2022-11-20T14:05:19;6.70;83.40
2539;DHT22;1280;49.760;9.664;2022-11-20T14:07:49;6.70;83.40
2539;DHT22;1280;49.760;9.664;2022-11-20T14:10:24;6.70;83.40
2539;DHT22;1280;49.760;9.664;2022-11-20T14:12:58;6.70;83.50
2539;DHT22;1280;49.760;9.664;2022-11-20T14:15:28;6.70;83.50
2539;DHT22;1280;49.760;9.664;2022-11-20T14:17:57;6.70;83.50
2539;DHT22;1280;49.760;9.664;2022-11-20T14:20:28;6.70;83.50
2539;DHT22;1280;49.760;9.664;2022-11-20T14:22:57;6.70;83.50
2539;DHT22;1280;49.760;9.664;2022-11-20T14:25:27;6.70;83.50
2539;DHT22;1280;49.760;9.664;2022-11-20T14:27:59;6.70;83.50
2539;DHT22;1280;49.760;9.664;2022-11-20T14:30:29;6.70;83.50
2539;DHT22;1280;49.760;9.664;2022-11-20T14:33:02;6.70;83.60
2539;DHT22;1280;49.760;9.664;2022-11-20T14:35:34;6.70;83.60
2539;DHT22;1280;49.760;9.664;2022-11-20T14:38:03;6.80;83.60
2539;DHT22;1280;49.760;9.664;2022-11-20T14:40:34;6.80;83.60
2539;DHT22;1280;49.760;9.664;2022-11-20T14:43:18;6.80;83.60
2539;DHT22;1280;49.760;9.664;2022-11-20T14:45:52;6.80;83.70
2539;DHT22;1280;49.760;9.664;2022-11-20T14:48:26;6.80;83.60
2539;DHT22;1280;49.760;9.664;2022-11-20T14:50:56;6.80;83.60
2539;DHT22;1280;49.760;9.664;2022-11-20T14:53:24;6.80;83.70
2539;DHT22;1280;49.760;9.664;2022-11-20T14:55:59;6.80;83.70
2539;DHT22;1280;49.760;9.664;2022-11-20T14:58:29;6.80;83.70
2539;DHT22;1280;49.760;9.664;2022-11-20T15:01:00;6.80;83.70
2539;DHT22;1280;49.760;9.664;2022-11-20T15:03:32;6.80;83.80
2539;DHT22;1280;49.760;9.664;2022-11-20T15:06:00;6.80;83.70
2539;DHT22;1280;49.760;9.664;2022-11-20T15:08:29;6.80;83.70
2539;DHT22;1280;49.760;9.664;2022-11-20T15:10:59;6.70;83.70
2539;DHT22;1280;49.760;9.664;2022-11-20T15:13:31;6.70;83.80
2539;DHT22;1280;49.760;9.664;2022-11-20T15:16:01;6.70;83.70
2539;DHT22;1280;49.760;9.664;2022-11-20T15:18:32;6.70;83.70
2539;DHT22;1280;49.760;9.664;2022-11-20T15:21:02;6.70;83.90
2539;DHT22;1280;49.760;9.664;2022-11-20T15:23:31;6.70;83.90
2539;DHT22;1280;49.760;9.664;2022-11-20T15:26:00;6.70;83.80
2539;DHT22;1280;49.760;9.664;2022-11-20T15:28:30;6.70;83.80
2539;DHT22;1280;49.760;9.664;2022-11-20T15:31:00;6.60;83.70
2539;DHT22;1280;49.760;9.664;2022-11-20T15:33:29;6.60;84.00
2539;DHT22;1280;49.760;9.664;2022-11-20T15:35:57;6.60;84.00
2539;DHT22;1280;49.760;9.664;2022-11-20T15:38:25;6.60;84.00
2539;DHT22;1280;49.760;9.664;2022-11-20T15:40:53;6.60;84.00
2539;DHT22;1280;49.760;9.664;2022-11-20T15:43:23;6.60;83.90
2539;DHT22;1280;49.760;9.664;2022-11-20T15:45:53;6.60;84.00
2539;DHT22;1280;49.760;9.664;2022-11-20T15:48:25;6.60;84.00
2539;DHT22;1280;49.760;9.664;2022-11-20T15:50:57;6.60;84.00
2539;DHT22;1280;49.760;9.664;2022-11-20T15:53:26;6.60;84.10
2539;DHT22;1280;49.760;9.664;2022-11-20T15:55:54;6.60;84.20
2539;DHT22;1280;49.760;9.664;2022-11-20T15:58:25;6.60;84.20
2539;DHT22;1280;49.760;9.664;2022-11-20T16:00:53;6.60;84.20
2539;DHT22;1280;49.760;9.664;2022-11-20T16:03:22;6.60;84.20
2539;DHT22;1280;49.760;9.664;2022-11-20T16:05:50;6.60;84.20
2539;DHT22;1280;49.760;9.664;2022-11-20T16:08:18;6.60;84.10
2539;DHT22;1280;49.760;9.664;2022-11-20T16:10:46;6.60;84.10
2539;DHT22;1280;49.760;9.664;2022-11-20T16:13:15;6.60;84.20
2539;DHT22;1280;49.760;9.664;2022-11-20T16:16:19;6.60;84.20
2539;DHT22;1280;49.760;9.664;2022-11-20T16:18:48;6.50;84.20
2539;DHT22;1280;49.760;9.664;2022-11-20T16:21:16;6.50;84.30
2539;DHT22;1280;49.760;9.664;2022-11-20T16:23:44;6.50;84.20
2539;DHT22;1280;49.760;9.664;2022-11-20T16:26:14;6.50;84.20
2539;DHT22;1280;49.760;9.664;2022-11-20T16:28:43;6.50;84.20
2539;DHT22;1280;49.760;9.664;2022-11-20T16:31:14;6.50;84.20
2539;DHT22;1280;49.760;9.664;2022-11-20T16:33:43;6.50;84.30
2539;DHT22;1280;49.760;9.664;2022-11-20T16:36:16;6.50;84.30
2539;DHT22;1280;49.760;9.664;2022-11-20T16:38:44;6.50;84.20
2539;DHT22;1280;49.760;9.664;2022-11-20T16:41:12;6.50;84.30
2539;DHT22;1280;49.760;9.664;2022-11-20T16:43:45;6.50;84.40
2539;DHT22;1280;49.760;9.664;2022-11-20T16:46:16;6.50;84.30